Time,TemperatureF,DewpointF,PressureIn,WindDirection,WindDirectionDegrees,WindSpeedMPH,WindSpeedGustMPH,Humidity,HourlyPrecipIn,Conditions,Clouds,dailyrainin,SoftwareType,DateUTC
2013-06-15 00:02:00,58.0,49.0,29.11,NNW,337,0.0,0.0,73,0.00,,,0.00,,2013-06-15 04:02:00,
2013-06-15 00:12:00,58.0,50.0,29.12,NNW,337,0.0,0.0,74,0.00,,,0.00,,2013-06-15 04:12:00,
2013-06-15 00:22:00,57.0,50.0,29.08,NNW,337,0.0,0.0,76,0.00,,,0.00,,2013-06-15 04:22:00,
2013-06-15 00:34:00,57.0,50.0,29.08,NNW,337,0.0,0.0,78,0.00,,,0.00,,2013-06-15 04:34:00,
2013-06-15 00:43:00,56.0,49.0,29.08,NNW,337,0.0,0.0,77,0.00,,,0.00,,2013-06-15 04:43:00,
2013-06-15 00:53:00,56.0,50.0,29.08,NNW,337,0.0,0.0,79,0.00,,,0.00,,2013-06-15 04:53:00,
2013-06-15 01:02:00,56.0,50.0,29.08,NNW,337,0.0,0.0,79,0.00,,,0.00,,2013-06-15 05:02:00,
2013-06-15 01:12:00,56.0,50.0,29.08,NNW,337,0.0,0.0,80,0.00,,,0.00,,2013-06-15 05:12:00,
2013-06-15 01:22:00,56.0,50.0,29.08,NNW,337,0.0,0.0,80,0.00,,,0.00,,2013-06-15 05:22:00,
2013-06-15 01:34:00,55.0,50.0,29.08,NNW,337,0.0,0.0,82,0.00,,,0.00,,2013-06-15 05:34:00,
2013-06-15 01:43:00,55.0,50.0,29.08,NNW,337,0.0,0.0,82,0.00,,,0.00,,2013-06-15 05:43:00,
2013-06-15 01:52:00,54.0,49.0,29.08,NNW,337,0.0,0.0,83,0.00,,,0.00,,2013-06-15 05:52:00,
2013-06-15 02:02:00,54.0,49.0,29.08,NNW,337,0.0,0.0,84,0.00,,,0.00,,2013-06-15 06:02:00,
2013-06-15 02:12:00,53.0,48.0,29.08,NNW,337,0.0,0.0,84,0.00,,,0.00,,2013-06-15 06:12:00,
2013-06-15 02:24:00,53.0,48.0,29.08,NNW,337,0.0,0.0,84,0.00,,,0.00,,2013-06-15 06:24:00,
2013-06-15 02:33:00,53.0,49.0,29.08,NNW,337,0.0,0.0,85,0.00,,,0.00,,2013-06-15 06:33:00,
2013-06-15 02:43:00,53.0,49.0,29.09,NNW,337,0.0,0.0,86,0.00,,,0.00,,2013-06-15 06:43:00,
2013-06-15 02:53:00,52.0,48.0,29.09,NNW,337,0.0,0.0,85,0.00,,,0.00,,2013-06-15 06:53:00,
2013-06-15 03:01:00,52.0,48.0,29.08,NNW,337,0.0,0.0,86,0.00,,,0.00,,2013-06-15 07:01:00,
2013-06-15 03:11:00,52.0,48.0,29.06,NNW,337,0.0,0.0,87,0.00,,,0.00,,2013-06-15 07:11:00,
2013-06-15 03:23:00,52.0,49.0,29.09,NNW,337,0.0,0.0,88,0.00,,,0.00,,2013-06-15 07:23:00,
2013-06-15 03:33:00,51.0,48.0,29.08,NNW,337,0.0,0.0,88,0.00,,,0.00,,2013-06-15 07:33:00,
2013-06-15 03:43:00,51.0,48.0,29.05,NNW,337,0.0,0.0,88,0.00,,,0.00,,2013-06-15 07:43:00,
2013-06-15 03:53:00,51.0,48.0,29.05,NNW,337,0.0,0.0,88,0.00,,,0.00,,2013-06-15 07:53:00,
2013-06-15 04:02:00,51.0,48.0,29.05,NNW,337,0.0,0.0,88,0.00,,,0.00,,2013-06-15 08:02:00,
2013-06-15 04:11:00,50.0,47.0,29.08,NNW,337,0.0,0.0,89,0.00,,,0.00,,2013-06-15 08:11:00,
2013-06-15 04:22:00,50.0,47.0,29.08,NNW,337,0.0,0.0,89,0.00,,,0.00,,2013-06-15 08:22:00,
2013-06-15 04:33:00,50.0,47.0,29.08,NNW,337,0.0,0.0,89,0.00,,,0.00,,2013-06-15 08:33:00,
2013-06-15 04:43:00,50.0,47.0,29.08,NNW,337,0.0,0.0,90,0.00,,,0.00,,2013-06-15 08:43:00,
2013-06-15 04:53:00,50.0,47.0,29.08,NNW,337,0.0,0.0,90,0.00,,,0.00,,2013-06-15 08:53:00,
2013-06-15 05:02:00,50.0,47.0,29.08,NNW,337,0.0,0.0,91,0.00,,,0.00,,2013-06-15 09:02:00,
2013-06-15 05:12:00,49.0,46.0,29.08,NNW,337,0.0,0.0,91,0.00,,,0.00,,2013-06-15 09:12:00,
2013-06-15 05:22:00,49.0,46.0,29.08,NNW,337,0.0,0.0,91,0.00,,,0.00,,2013-06-15 09:22:00,
2013-06-15 05:33:00,49.0,46.0,29.08,NNW,337,0.0,0.0,91,0.00,,,0.00,,2013-06-15 09:33:00,
2013-06-15 05:43:00,49.0,47.0,29.08,NNW,337,0.0,0.0,93,0.00,,,0.00,,2013-06-15 09:43:00,
2013-06-15 05:52:00,49.0,47.0,29.08,NNW,337,0.0,0.0,92,0.00,,,0.00,,2013-06-15 09:52:00,
2013-06-15 06:02:00,49.0,47.0,29.11,NNW,337,0.0,0.0,92,0.00,,,0.00,,2013-06-15 10:02:00,
2013-06-15 06:11:00,49.0,47.0,29.11,NNW,337,0.0,0.0,92,0.00,,,0.00,,2013-06-15 10:11:00,
2013-06-15 06:23:00,49.0,47.0,29.11,NNW,337,0.0,0.0,93,0.00,,,0.00,,2013-06-15 10:23:00,
2013-06-15 06:34:00,49.0,47.0,29.11,NNW,337,0.0,0.0,93,0.00,,,0.00,,2013-06-15 10:34:00,
2013-06-15 06:44:00,49.0,47.0,29.08,NNW,337,0.0,0.0,94,0.00,,,0.00,,2013-06-15 10:44:00,
2013-06-15 06:53:00,49.0,47.0,29.08,NNW,337,0.0,0.0,94,0.00,,,0.00,,2013-06-15 10:53:00,
2013-06-15 07:02:00,50.0,48.0,29.11,NNW,337,0.0,0.0,94,0.00,,,0.00,,2013-06-15 11:02:00,
2013-06-15 07:12:00,51.0,50.0,29.08,NNW,337,0.0,0.0,95,0.00,,,0.00,,2013-06-15 11:12:00,
2013-06-15 07:22:00,51.0,50.0,29.08,NNW,337,0.0,0.0,95,0.00,,,0.00,,2013-06-15 11:22:00,
2013-06-15 07:33:00,51.0,50.0,29.08,NNW,337,0.0,0.0,95,0.00,,,0.00,,2013-06-15 11:33:00,
2013-06-15 07:43:00,55.0,54.0,29.12,NNW,337,0.0,0.0,95,0.00,,,0.00,,2013-06-15 11:43:00,
2013-06-15 07:53:00,56.0,54.0,29.12,NNW,337,0.0,0.0,94,0.00,,,0.00,,2013-06-15 11:53:00,
2013-06-15 08:02:00,57.0,55.0,29.12,NNW,337,1.0,1.0,93,0.00,,,0.00,,2013-06-15 12:02:00,
2013-06-15 08:12:00,58.0,55.0,29.12,NNW,337,0.0,0.0,91,0.00,,,0.00,,2013-06-15 12:12:00,
2013-06-15 08:22:00,59.0,56.0,29.12,NNW,337,0.0,1.0,89,0.00,,,0.00,,2013-06-15 12:22:00,
2013-06-15 08:33:00,60.0,55.0,29.15,NNW,337,0.0,1.0,84,0.00,,,0.00,,2013-06-15 12:33:00,
2013-06-15 09:02:00,64.0,54.0,29.15,NNW,337,0.0,2.0,69,0.00,,,0.00,,2013-06-15 13:02:00,
2013-06-15 09:11:00,66.0,53.0,29.15,NNW,337,2.0,2.0,64,0.00,,,0.00,,2013-06-15 13:11:00,
2013-06-15 09:43:00,69.0,51.0,29.15,SSW,202,0.0,4.0,52,0.00,,,0.00,,2013-06-15 13:43:00,
2013-06-15 10:22:00,75.0,50.0,29.15,NW,315,3.0,4.0,42,0.00,,,0.00,,2013-06-15 14:22:00,
2013-06-15 17:42:00,82.0,39.0,29.08,WNW,294,3.0,4.0,22,0.00,,,0.00,,2013-06-15 21:42:00,
2013-06-15 22:22:00,68.0,53.0,29.07,WNW,292,0.0,0.0,59,0.00,,,0.00,,2013-06-16 02:22:00,
2013-06-15 22:33:00,67.0,53.0,29.07,WNW,292,0.0,0.0,60,0.00,,,0.00,,2013-06-16 02:33:00,
2013-06-15 22:43:00,67.0,53.0,29.07,WNW,292,0.0,0.0,61,0.00,,,0.00,,2013-06-16 02:43:00,
2013-06-15 22:53:00,68.0,55.0,29.07,WNW,292,0.0,0.0,63,0.00,,,0.00,,2013-06-16 02:53:00,
2013-06-15 23:02:00,68.0,55.0,29.07,WNW,292,0.0,0.0,63,0.00,,,0.00,,2013-06-16 03:02:00,
2013-06-15 23:12:00,68.0,55.0,29.07,WNW,292,0.0,0.0,63,0.00,,,0.00,,2013-06-16 03:12:00,
2013-06-15 23:22:00,68.0,55.0,29.07,WNW,292,0.0,0.0,64,0.00,,,0.00,,2013-06-16 03:22:00,
2013-06-15 23:33:00,68.0,56.0,29.07,WNW,292,0.0,0.0,65,0.00,,,0.00,,2013-06-16 03:33:00,
2013-06-15 23:43:00,68.0,56.0,29.07,WNW,292,0.0,0.0,65,0.00,,,0.00,,2013-06-16 03:43:00,
2013-06-15 23:53:00,68.0,56.0,29.08,WNW,292,0.0,0.0,66,0.00,,,0.00,,2013-06-16 03:53:00,